Time;durP1;ratioP1;P1;durP2;ratioP2;P2;SDS_P1;SDS_P2;PMS_P1;PMS_P2;Temp;Humidity;BMP_temperature;BMP_pressure;BME280_temperature;BME280_humidity;BME280_pressure;Samples;Min_cycle;Max_cycle;Signal;HPM_P1;HPM_P2
2022/03/15 00:00:54;;;;;;;11.30;4.13;;;5.80;99.90;;;;;;5052759;28;20025;-46
2022/03/15 00:03:20;;;;;;;7.55;4.47;;;5.80;99.90;;;;;;5052370;28;20029;-45
2022/03/15 00:05:46;;;;;;;9.20;4.50;;;5.80;99.90;;;;;;5051318;28;20025;-48
2022/03/15 00:08:12;;;;;;;7.20;4.35;;;5.80;99.90;;;;;;5052958;28;20104;-48
2022/03/15 00:10:38;;;;;;;8.02;3.58;;;5.80;99.90;;;;;;5052602;28;20024;-49
2022/03/15 00:13:06;;;;;;;10.15;4.65;;;5.70;99.90;;;;;;5051626;28;20107;-46
2022/03/15 00:15:32;;;;;;;9.48;3.70;;;5.70;99.90;;;;;;5052650;28;20108;-47
2022/03/15 00:17:59;;;;;;;6.53;3.90;;;5.60;99.90;;;;;;5052582;28;20372;-50
2022/03/15 00:20:25;;;;;;;8.90;3.90;;;5.60;99.90;;;;;;5052778;28;20082;-51
2022/03/15 00:22:55;;;;;;;6.05;3.58;;;5.70;99.90;;;;;;5052178;28;20064;-46
2022/03/15 00:25:21;;;;;;;10.02;4.20;;;5.60;99.90;;;;;;5056351;28;20025;-48
2022/03/15 00:27:50;;;;;;;6.80;4.53;;;5.60;99.90;;;;;;5054908;28;20021;-49
2022/03/15 00:30:17;;;;;;;9.48;4.25;;;5.50;99.90;;;;;;5056115;28;20025;-46
2022/03/15 00:32:42;;;;;;;9.10;3.75;;;5.50;99.90;;;;;;5054811;28;20025;-49
2022/03/15 00:35:14;;;;;;;7.85;4.10;;;5.60;99.90;;;;;;5056505;28;20025;-49
2022/03/15 00:37:41;;;;;;;10.27;4.40;;;5.50;99.90;;;;;;5054712;28;20025;-52
2022/03/15 00:40:07;;;;;;;6.30;3.92;;;5.50;99.90;;;;;;5054693;28;20033;-50
2022/03/15 00:42:32;;;;;;;6.32;3.80;;;5.40;99.90;;;;;;5056175;28;20476;-48
2022/03/15 00:45:02;;;;;;;9.57;4.13;;;5.40;99.90;;;;;;5055399;28;20036;-49
2022/03/15 00:47:29;;;;;;;12.10;4.25;;;5.30;99.90;;;;;;5055633;28;20013;-47
2022/03/15 00:49:54;;;;;;;8.52;4.25;;;5.20;99.90;;;;;;5054817;28;20045;-51
2022/03/15 00:52:20;;;;;;;6.75;4.05;;;5.30;99.90;;;;;;5055691;28;20064;-46
2022/03/15 00:54:45;;;;;;;8.75;4.40;;;5.30;99.90;;;;;;5054429;28;20025;-47
2022/03/15 00:57:11;;;;;;;5.57;3.83;;;5.40;99.90;;;;;;5054825;28;20013;-48
2022/03/15 00:59:37;;;;;;;7.72;3.75;;;5.30;99.90;;;;;;5055903;28;20067;-51
2022/03/15 01:02:03;;;;;;;10.73;4.60;;;5.40;99.90;;;;;;5056050;28;20025;-50
2022/03/15 01:04:29;;;;;;;9.00;3.92;;;5.40;99.90;;;;;;5055706;28;20103;-47
2022/03/15 01:06:55;;;;;;;7.95;3.85;;;5.40;99.90;;;;;;5054529;28;20116;-50
2022/03/15 01:09:20;;;;;;;7.40;3.85;;;5.40;99.90;;;;;;5054268;28;20025;-46
2022/03/15 01:11:46;;;;;;;6.97;3.55;;;5.40;99.90;;;;;;5054360;28;20071;-47
2022/03/15 01:14:12;;;;;;;7.68;3.40;;;5.40;99.90;;;;;;5055429;28;20045;-48
2022/03/15 01:16:38;;;;;;;9.20;3.78;;;5.30;99.90;;;;;;5055475;28;20040;-53
2022/03/15 01:19:07;;;;;;;10.30;3.95;;;5.30;99.90;;;;;;5055274;28;20484;-46
2022/03/15 01:24:55;;;;;;;8.65;3.78;;;5.40;99.90;;;;;;5054555;28;20056;-46
2022/03/15 01:27:21;;;;;;;5.97;3.80;;;5.40;99.90;;;;;;5055574;28;20456;-47
2022/03/15 01:29:46;;;;;;;6.70;3.50;;;5.40;99.90;;;;;;5053675;28;20025;-46
2022/03/15 01:32:12;;;;;;;8.63;4.40;;;5.40;99.90;;;;;;5054911;28;20018;-49
2022/03/15 01:34:37;;;;;;;8.05;3.80;;;5.30;99.90;;;;;;5052859;28;20024;-47
2022/03/15 01:37:03;;;;;;;11.48;3.85;;;5.20;99.90;;;;;;5053442;28;20033;-46
2022/03/15 01:39:29;;;;;;;8.95;4.20;;;5.10;99.90;;;;;;5053556;28;20021;-48
2022/03/15 01:41:54;;;;;;;10.85;3.97;;;5.10;99.90;;;;;;5053432;28;20020;-47
2022/03/15 01:44:22;;;;;;;6.57;4.30;;;5.20;99.90;;;;;;5054618;28;20029;-48
2022/03/15 01:46:49;;;;;;;13.77;5.38;;;5.20;99.90;;;;;;5054134;28;20025;-47
2022/03/15 01:49:15;;;;;;;8.93;4.35;;;5.20;99.90;;;;;;5054654;28;20017;-47
2022/03/15 01:51:41;;;;;;;7.75;3.78;;;5.10;99.90;;;;;;5053342;28;20025;-46
2022/03/15 01:54:08;;;;;;;10.52;4.18;;;5.10;99.90;;;;;;5053138;28;20025;-48
2022/03/15 01:56:34;;;;;;;11.38;3.88;;;5.20;99.90;;;;;;5053171;28;20021;-46
2022/03/15 01:59:00;;;;;;;6.32;3.70;;;5.20;99.90;;;;;;5053524;28;20025;-46
2022/03/15 02:01:26;;;;;;;8.23;3.95;;;5.20;99.90;;;;;;5053455;28;20032;-48
2022/03/15 02:03:51;;;;;;;8.23;4.25;;;5.10;99.90;;;;;;5054272;28;20021;-46
2022/03/15 02:06:17;;;;;;;8.32;3.70;;;5.10;99.90;;;;;;5054119;28;20095;-46
2022/03/15 02:08:43;;;;;;;7.32;3.60;;;5.10;99.90;;;;;;5054282;28;20052;-47
2022/03/15 02:11:08;;;;;;;8.70;3.85;;;5.10;99.90;;;;;;5052978;28;20028;-46
2022/03/15 02:13:34;;;;;;;8.73;3.92;;;5.10;99.90;;;;;;5054084;28;20480;-46
2022/03/15 02:16:00;;;;;;;7.50;3.67;;;5.10;99.90;;;;;;5054079;28;20021;-47
2022/03/15 02:18:27;;;;;;;7.82;4.05;;;5.10;99.90;;;;;;5054636;28;20055;-50
2022/03/15 02:20:55;;;;;;;7.10;4.10;;;5.10;99.90;;;;;;5053429;28;20028;-48
2022/03/15 02:23:21;;;;;;;9.57;3.95;;;5.10;99.90;;;;;;5053933;28;20035;-48
2022/03/15 02:25:46;;;;;;;7.93;3.92;;;5.10;99.90;;;;;;5054016;28;20104;-46
2022/03/15 02:28:13;;;;;;;7.72;4.00;;;5.10;99.90;;;;;;5053886;28;20106;-47
2022/03/15 02:30:39;;;;;;;7.45;3.80;;;5.10;99.90;;;;;;5052591;28;20103;-46
2022/03/15 02:33:04;;;;;;;8.02;3.85;;;5.00;99.90;;;;;;5052658;28;20112;-50
2022/03/15 02:35:30;;;;;;;6.63;3.65;;;5.00;99.90;;;;;;5053994;28;20029;-49
2022/03/15 02:37:56;;;;;;;6.95;3.75;;;5.10;99.90;;;;;;5052730;28;20033;-53
2022/03/15 02:40:22;;;;;;;9.93;4.30;;;5.10;99.90;;;;;;5053275;28;20029;-47
2022/03/15 02:42:48;;;;;;;6.53;3.88;;;5.10;99.90;;;;;;5052656;28;20021;-46
2022/03/15 02:45:14;;;;;;;7.70;4.50;;;5.00;99.90;;;;;;5053315;28;20075;-46
2022/03/15 02:47:43;;;;;;;7.68;3.47;;;5.00;99.90;;;;;;5052187;28;20021;-47
2022/03/15 02:50:10;;;;;;;5.72;3.80;;;5.00;99.90;;;;;;5053613;28;20024;-47
2022/03/15 02:52:35;;;;;;;5.57;3.45;;;5.00;99.90;;;;;;5052581;28;20049;-47
2022/03/15 02:55:05;;;;;;;6.25;4.00;;;5.00;99.90;;;;;;5053734;28;20079;-46
2022/03/15 02:57:31;;;;;;;7.18;3.72;;;5.00;99.90;;;;;;5052511;28;20024;-46
2022/03/15 02:59:57;;;;;;;5.25;3.55;;;5.00;99.90;;;;;;5052092;28;20029;-46
2022/03/15 03:02:23;;;;;;;5.43;3.70;;;5.00;99.90;;;;;;5052102;28;20480;-46
2022/03/15 03:04:49;;;;;;;4.85;3.45;;;4.90;99.90;;;;;;5053336;28;20036;-46
2022/03/15 03:07:15;;;;;;;6.82;3.75;;;4.90;99.90;;;;;;5053289;28;20017;-46
2022/03/15 03:09:42;;;;;;;7.10;3.90;;;4.90;99.90;;;;;;5053253;28;20483;-46
2022/03/15 03:12:08;;;;;;;7.82;3.90;;;4.90;99.90;;;;;;5053321;28;20018;-46
2022/03/15 03:14:34;;;;;;;7.28;3.65;;;5.00;99.90;;;;;;5052350;28;20021;-46
2022/03/15 03:17:00;;;;;;;7.35;4.00;;;5.00;99.90;;;;;;5052065;28;20095;-46
2022/03/15 03:19:25;;;;;;;8.05;3.83;;;4.90;99.90;;;;;;5053424;28;20021;-46
2022/03/15 03:21:51;;;;;;;8.05;3.70;;;5.00;99.90;;;;;;5052185;28;20029;-46
2022/03/15 03:24:24;;;;;;;7.63;3.78;;;5.10;99.90;;;;;;5053158;28;20427;-46
2022/03/15 03:26:50;;;;;;;8.52;3.95;;;5.10;99.90;;;;;;5053544;28;20079;-46
2022/03/15 03:29:16;;;;;;;8.18;3.42;;;5.10;99.90;;;;;;5051859;28;20021;-46
2022/03/15 03:31:43;;;;;;;8.88;3.55;;;5.00;99.90;;;;;;5053213;28;20387;-48
2022/03/15 03:34:10;;;;;;;8.82;4.00;;;5.00;99.90;;;;;;5053000;28;20103;-46
2022/03/15 03:36:36;;;;;;;6.55;3.78;;;5.00;99.90;;;;;;5053182;28;20021;-47
2022/03/15 03:39:04;;;;;;;7.47;3.75;;;5.10;99.90;;;;;;5051705;28;20021;-47
2022/03/15 03:41:30;;;;;;;7.45;4.00;;;5.20;99.90;;;;;;5053330;28;20033;-46
2022/03/15 03:43:55;;;;;;;6.72;3.70;;;5.30;99.90;;;;;;5053342;28;20036;-47
2022/03/15 03:46:21;;;;;;;10.20;4.20;;;5.30;99.90;;;;;;5051850;28;20118;-46
2022/03/15 03:48:47;;;;;;;11.95;3.58;;;5.20;99.90;;;;;;5052954;28;20021;-47
2022/03/15 03:51:13;;;;;;;14.43;4.53;;;5.20;99.90;;;;;;5053167;28;20017;-47
2022/03/15 03:53:39;;;;;;;8.95;4.00;;;5.20;99.90;;;;;;5051481;28;20159;-46
2022/03/15 03:56:05;;;;;;;12.73;5.10;;;5.10;99.90;;;;;;5051525;28;20392;-46
2022/03/15 03:58:31;;;;;;;18.23;5.53;;;5.10;99.90;;;;;;5054753;28;20025;-48
2022/03/15 04:00:56;;;;;;;8.07;4.40;;;5.20;99.90;;;;;;5056635;28;20029;-51
2022/03/15 04:03:22;;;;;;;8.82;4.18;;;5.20;99.90;;;;;;5056991;28;20032;-47
2022/03/15 04:05:49;;;;;;;11.15;4.85;;;5.30;99.90;;;;;;5055482;28;20032;-49
2022/03/15 04:08:14;;;;;;;6.65;4.75;;;5.20;99.90;;;;;;5056563;28;20021;-50
2022/03/15 04:10:40;;;;;;;12.77;5.95;;;5.20;99.90;;;;;;5056502;28;20036;-51
2022/03/15 04:13:07;;;;;;;8.50;4.93;;;5.20;99.90;;;;;;5055207;28;20021;-48
2022/03/15 04:15:34;;;;;;;7.32;4.53;;;5.20;99.90;;;;;;5055048;28;20483;-49
2022/03/15 04:18:00;;;;;;;8.57;4.38;;;5.20;99.90;;;;;;5057168;28;20017;-50
2022/03/15 04:20:26;;;;;;;10.88;4.50;;;5.20;99.90;;;;;;5054919;28;20405;-46
2022/03/15 04:22:51;;;;;;;9.55;4.50;;;5.30;99.90;;;;;;5056330;28;20021;-47
2022/03/15 04:25:19;;;;;;;7.97;4.35;;;5.20;99.90;;;;;;5055235;28;20033;-53
2022/03/15 04:27:45;;;;;;;11.65;5.15;;;5.20;99.90;;;;;;5056136;28;20079;-47
2022/03/15 04:30:11;;;;;;;7.30;4.55;;;5.10;99.90;;;;;;5054705;28;20025;-46
2022/03/15 04:32:37;;;;;;;10.43;5.78;;;5.20;99.90;;;;;;5054662;28;20028;-47
2022/03/15 04:35:04;;;;;;;8.95;5.00;;;5.20;99.90;;;;;;5055917;28;20028;-47
2022/03/15 04:37:30;;;;;;;9.15;5.00;;;5.20;99.90;;;;;;5054631;28;20032;-47
2022/03/15 04:39:58;;;;;;;8.95;4.72;;;5.20;99.90;;;;;;5054617;28;20025;-47
2022/03/15 04:42:24;;;;;;;9.77;5.15;;;5.20;99.90;;;;;;5055206;28;20032;-46
2022/03/15 04:44:50;;;;;;;9.07;5.18;;;5.10;99.90;;;;;;5054767;28;20029;-49
2022/03/15 04:47:16;;;;;;;15.00;5.40;;;4.90;99.90;;;;;;5055759;28;20021;-47
2022/03/15 04:49:41;;;;;;;9.18;4.90;;;4.80;99.90;;;;;;5054467;28;20021;-47
2022/03/15 04:52:07;;;;;;;11.68;4.82;;;4.80;99.90;;;;;;5056028;28;20025;-47
2022/03/15 04:54:33;;;;;;;9.23;5.25;;;4.80;99.90;;;;;;5055594;28;20033;-49
2022/03/15 04:56:58;;;;;;;7.90;4.45;;;4.90;99.90;;;;;;5055591;28;20025;-51
2022/03/15 04:59:24;;;;;;;9.38;4.47;;;5.00;99.90;;;;;;5054434;28;20104;-50
2022/03/15 05:01:50;;;;;;;6.95;4.28;;;5.00;99.90;;;;;;5054570;28;20025;-51
2022/03/15 05:04:15;;;;;;;8.25;5.22;;;5.10;99.90;;;;;;5054288;28;20032;-49
2022/03/15 05:06:41;;;;;;;9.18;5.72;;;5.00;99.90;;;;;;5055437;28;20502;-48
2022/03/15 05:09:06;;;;;;;19.98;9.93;;;5.00;99.90;;;;;;5055338;28;20017;-54
2022/03/15 05:11:34;;;;;;;10.38;6.63;;;5.10;99.90;;;;;;5055306;28;20024;-46
2022/03/15 05:13:59;;;;;;;9.23;4.30;;;5.10;99.90;;;;;;5055285;28;20021;-47
2022/03/15 05:16:25;;;;;;;8.48;4.50;;;5.10;99.90;;;;;;5053945;28;20128;-47
2022/03/15 05:18:54;;;;;;;10.88;4.13;;;5.10;99.90;;;;;;5054542;28;20021;-47
2022/03/15 05:21:25;;;;;;;7.28;4.30;;;5.10;99.90;;;;;;5055631;28;20033;-48
2022/03/15 05:23:53;;;;;;;9.82;4.88;;;5.10;99.90;;;;;;5055451;28;20036;-47
2022/03/15 05:26:19;;;;;;;9.13;3.83;;;5.10;99.90;;;;;;5053753;28;20130;-47
2022/03/15 05:28:45;;;;;;;6.03;4.03;;;5.10;99.90;;;;;;5055083;28;20502;-49
2022/03/15 05:31:12;;;;;;;10.02;4.43;;;5.10;99.90;;;;;;5054957;28;20099;-47
2022/03/15 05:33:38;;;;;;;11.55;4.53;;;5.10;99.90;;;;;;5055042;28;20116;-47
2022/03/15 05:36:04;;;;;;;8.88;4.40;;;5.00;99.90;;;;;;5053606;28;20060;-47
2022/03/15 05:38:30;;;;;;;11.73;4.93;;;5.00;99.90;;;;;;5054876;28;20027;-47
2022/03/15 05:40:55;;;;;;;10.23;4.75;;;4.90;99.90;;;;;;5054841;28;20100;-47
2022/03/15 05:43:22;;;;;;;9.85;4.60;;;4.90;99.90;;;;;;5055051;28;20103;-47
2022/03/15 05:45:49;;;;;;;10.80;5.57;;;4.90;99.90;;;;;;5053317;28;20052;-47
2022/03/15 05:48:15;;;;;;;7.70;5.20;;;5.00;99.90;;;;;;5054691;28;20013;-47
2022/03/15 05:50:40;;;;;;;9.68;5.38;;;5.10;99.90;;;;;;5054586;28;20052;-47
2022/03/15 05:53:07;;;;;;;17.70;6.10;;;5.10;99.90;;;;;;5053438;28;20017;-47
2022/03/15 05:55:34;;;;;;;12.20;5.50;;;5.00;99.90;;;;;;5054923;28;20102;-50
2022/03/15 05:58:00;;;;;;;8.80;5.10;;;4.90;99.90;;;;;;5053161;28;20036;-47
2022/03/15 06:00:27;;;;;;;10.77;5.28;;;4.90;99.90;;;;;;5054425;28;20128;-47
2022/03/15 06:02:53;;;;;;;13.70;5.03;;;5.00;99.90;;;;;;5054410;28;20033;-47
2022/03/15 06:05:19;;;;;;;8.45;5.00;;;5.00;99.90;;;;;;5053068;28;20021;-46
2022/03/15 06:07:50;;;;;;;8.57;4.90;;;5.10;99.90;;;;;;5053347;28;20050;-47
2022/03/15 06:10:18;;;;;;;13.23;6.30;;;5.20;99.90;;;;;;5054294;28;20017;-48
2022/03/15 06:12:44;;;;;;;15.68;6.15;;;5.20;99.90;;;;;;5054144;28;20036;-47
2022/03/15 06:15:11;;;;;;;12.18;6.50;;;5.30;99.90;;;;;;5053596;28;20025;-47
2022/03/15 06:17:44;;;;;;;14.82;6.38;;;5.30;99.90;;;;;;5054034;28;20021;-48
2022/03/15 06:20:13;;;;;;;11.20;5.00;;;5.50;99.90;;;;;;5053666;28;20021;-47
2022/03/15 06:22:39;;;;;;;10.32;4.57;;;5.40;99.90;;;;;;5052739;28;20029;-48
2022/03/15 06:25:05;;;;;;;12.13;6.10;;;5.50;99.90;;;;;;5054342;28;20460;-47
2022/03/15 06:27:31;;;;;;;11.27;4.63;;;5.40;99.90;;;;;;5053872;28;20021;-47
2022/03/15 06:29:57;;;;;;;12.98;5.28;;;5.40;99.90;;;;;;5052707;28;20036;-50
2022/03/15 06:32:23;;;;;;;17.48;6.70;;;5.50;99.90;;;;;;5053790;28;20031;-47
2022/03/15 06:34:49;;;;;;;28.27;10.32;;;5.50;99.90;;;;;;5052586;28;20017;-47
2022/03/15 06:37:15;;;;;;;47.13;15.90;;;5.50;99.90;;;;;;5053672;28;20048;-47
2022/03/15 06:39:41;;;;;;;40.28;14.82;;;5.50;99.90;;;;;;5053988;28;20048;-50
2022/03/15 06:42:11;;;;;;;18.65;6.95;;;5.50;99.90;;;;;;5054018;28;20143;-47
2022/03/15 06:44:42;;;;;;;10.30;5.18;;;5.60;99.90;;;;;;5053954;28;20021;-47
2022/03/15 06:47:08;;;;;;;15.05;6.20;;;5.70;99.90;;;;;;5052425;28;20028;-48
2022/03/15 06:49:34;;;;;;;11.05;4.93;;;5.70;99.90;;;;;;5053642;28;20025;-47
2022/03/15 06:51:59;;;;;;;12.75;4.68;;;5.80;99.90;;;;;;5052278;28;20074;-49
2022/03/15 06:54:26;;;;;;;11.10;4.82;;;5.70;99.90;;;;;;5053484;28;20029;-47
2022/03/15 06:56:53;;;;;;;9.60;4.32;;;5.80;99.90;;;;;;5052172;28;20480;-47
2022/03/15 06:59:19;;;;;;;13.25;5.63;;;5.80;99.90;;;;;;5052170;28;20510;-47
2022/03/15 07:01:45;;;;;;;8.15;4.70;;;5.90;99.90;;;;;;5053689;28;20032;-48
2022/03/15 07:04:11;;;;;;;11.52;5.50;;;6.00;99.90;;;;;;5052100;28;20025;-49
2022/03/15 07:06:36;;;;;;;36.05;13.57;;;6.10;99.90;;;;;;5053221;28;20032;-47
2022/03/15 07:09:02;;;;;;;13.95;6.82;;;6.10;99.90;;;;;;5053589;28;20023;-47
2022/03/15 07:11:28;;;;;;;22.08;7.15;;;6.20;99.90;;;;;;5052065;28;20075;-47
2022/03/15 07:13:54;;;;;;;14.45;6.32;;;6.30;99.90;;;;;;5053308;28;20025;-47
2022/03/15 07:16:19;;;;;;;17.50;8.50;;;6.40;99.90;;;;;;5051905;28;20029;-47
2022/03/15 07:18:45;;;;;;;18.13;7.32;;;6.50;99.90;;;;;;5052335;28;20029;-48
2022/03/15 07:21:12;;;;;;;13.15;6.88;;;6.50;99.90;;;;;;5052561;28;20061;-47
2022/03/15 07:23:37;;;;;;;15.57;7.25;;;6.50;99.90;;;;;;5053110;28;20048;-47
2022/03/15 07:26:04;;;;;;;22.10;10.07;;;6.50;99.90;;;;;;5052063;28;20060;-49
2022/03/15 07:28:29;;;;;;;14.32;6.22;;;6.50;99.90;;;;;;5052225;28;20090;-50
2022/03/15 07:30:55;;;;;;;12.57;6.70;;;6.50;99.90;;;;;;5053116;28;20472;-47
2022/03/15 07:33:20;;;;;;;11.40;6.47;;;6.40;99.90;;;;;;5054757;28;20021;-48
2022/03/15 07:35:46;;;;;;;12.73;6.00;;;6.40;99.90;;;;;;5056105;28;20021;-47
2022/03/15 07:38:17;;;;;;;22.63;9.02;;;6.50;99.90;;;;;;5057060;28;20086;-50
2022/03/15 07:40:43;;;;;;;16.40;6.60;;;6.60;99.90;;;;;;5057792;28;20021;-52
2022/03/15 07:43:09;;;;;;;12.43;4.88;;;6.60;99.90;;;;;;5055846;28;20036;-48
2022/03/15 07:45:34;;;;;;;11.27;5.40;;;6.80;99.90;;;;;;5056498;28;20025;-51
2022/03/15 07:48:00;;;;;;;16.00;5.57;;;6.90;99.90;;;;;;5056892;28;20013;-50
2022/03/15 07:50:26;;;;;;;9.68;5.55;;;7.00;99.90;;;;;;5056926;28;20021;-53
2022/03/15 07:52:52;;;;;;;8.20;4.85;;;7.10;99.90;;;;;;5057182;28;20464;-52
2022/03/15 07:55:21;;;;;;;10.43;4.70;;;7.20;99.90;;;;;;5057206;28;20387;-47
2022/03/15 07:57:47;;;;;;;6.47;4.18;;;7.30;99.90;;;;;;5055563;28;20031;-47
2022/03/15 08:00:14;;;;;;;9.27;4.82;;;7.60;99.90;;;;;;5055511;28;20021;-48
2022/03/15 08:02:39;;;;;;;7.82;4.85;;;7.70;99.90;;;;;;5056669;28;20025;-48
2022/03/15 08:05:06;;;;;;;11.55;5.20;;;7.50;99.90;;;;;;5056783;28;20102;-46
2022/03/15 08:07:33;;;;;;;10.90;5.72;;;7.60;99.90;;;;;;5055307;28;20024;-47
2022/03/15 08:09:59;;;;;;;9.05;5.43;;;7.60;99.90;;;;;;5055305;28;20021;-47
2022/03/15 08:12:25;;;;;;;10.02;4.97;;;7.60;99.90;;;;;;5055289;28;20391;-47
2022/03/15 08:14:51;;;;;;;9.52;5.60;;;7.70;99.90;;;;;;5055231;28;20034;-48
2022/03/15 08:17:17;;;;;;;12.18;7.05;;;7.70;99.90;;;;;;5055106;28;20025;-47
2022/03/15 08:19:43;;;;;;;13.05;6.75;;;7.80;99.90;;;;;;5055716;28;20029;-48
2022/03/15 08:22:09;;;;;;;10.90;5.63;;;7.80;99.90;;;;;;5056621;28;20146;-47
2022/03/15 08:24:34;;;;;;;10.43;5.38;;;7.90;99.90;;;;;;5054882;28;20502;-46
2022/03/15 08:27:00;;;;;;;11.63;5.72;;;7.90;99.90;;;;;;5056191;28;20029;-47
2022/03/15 08:29:26;;;;;;;11.15;5.07;;;7.90;99.90;;;;;;5054982;28;20017;-47
2022/03/15 08:31:52;;;;;;;9.75;5.97;;;8.00;99.90;;;;;;5054913;28;20032;-46
2022/03/15 08:34:17;;;;;;;11.45;5.90;;;7.90;99.90;;;;;;5056677;28;20025;-47
2022/03/15 08:36:44;;;;;;;12.10;6.28;;;8.00;99.90;;;;;;5056024;28;20025;-47
2022/03/15 08:39:09;;;;;;;9.70;5.82;;;8.00;99.90;;;;;;5055123;28;20051;-46
2022/03/15 08:41:35;;;;;;;12.13;5.90;;;8.10;99.90;;;;;;5054686;28;20029;-49
2022/03/15 08:44:01;;;;;;;12.93;6.30;;;8.20;99.90;;;;;;5054955;28;20025;-51
2022/03/15 08:46:27;;;;;;;9.55;5.25;;;8.20;99.90;;;;;;5055443;28;20471;-48
2022/03/15 08:48:54;;;;;;;15.55;5.70;;;8.20;99.90;;;;;;5055982;28;20025;-53
2022/03/15 08:51:20;;;;;;;12.05;5.85;;;8.40;99.90;;;;;;5056141;28;20029;-51
2022/03/15 08:53:46;;;;;;;12.32;5.68;;;8.50;99.90;;;;;;5054606;28;20021;-48
2022/03/15 08:56:12;;;;;;;9.45;5.32;;;8.60;99.90;;;;;;5055161;28;20075;-50
2022/03/15 08:58:37;;;;;;;11.60;5.38;;;8.70;99.90;;;;;;5054525;28;20028;-50
2022/03/15 09:01:03;;;;;;;9.40;5.22;;;8.90;99.90;;;;;;5054392;28;20032;-51
2022/03/15 09:03:29;;;;;;;11.40;5.88;;;8.80;99.90;;;;;;5054760;28;20036;-54
2022/03/15 09:05:55;;;;;;;12.27;5.47;;;8.80;99.90;;;;;;5055549;28;20028;-46
2022/03/15 09:08:20;;;;;;;17.30;6.03;;;8.90;99.90;;;;;;5054235;28;20029;-49
2022/03/15 09:10:47;;;;;;;12.43;5.43;;;9.00;99.90;;;;;;5055401;28;20028;-48
2022/03/15 09:13:13;;;;;;;11.77;5.55;;;9.00;99.90;;;;;;5055339;28;20028;-48
2022/03/15 09:15:39;;;;;;;9.60;5.20;;;9.10;99.90;;;;;;5054379;28;20029;-48
2022/03/15 09:18:05;;;;;;;12.00;5.72;;;9.20;99.90;;;;;;5055309;28;20079;-47
2022/03/15 09:20:31;;;;;;;11.15;5.28;;;9.30;99.90;;;;;;5054003;28;20025;-47
2022/03/15 09:22:57;;;;;;;14.95;5.72;;;9.20;99.90;;;;;;5054295;28;20146;-50
2022/03/15 09:25:23;;;;;;;10.30;5.20;;;9.40;99.90;;;;;;5053769;28;20083;-47
2022/03/15 09:27:50;;;;;;;10.40;5.03;;;9.40;99.90;;;;;;5055146;28;20029;-47
2022/03/15 09:30:17;;;;;;;10.93;5.28;;;9.10;99.90;;;;;;5053819;28;20029;-47
2022/03/15 09:32:42;;;;;;;8.13;5.00;;;9.10;99.90;;;;;;5053835;28;20043;-49
2022/03/15 09:35:09;;;;;;;9.38;5.55;;;9.40;99.90;;;;;;5055055;28;20013;-47
2022/03/15 09:37:35;;;;;;;16.27;6.40;;;9.30;99.90;;;;;;5053648;28;20045;-47
2022/03/15 09:40:06;;;;;;;10.10;6.30;;;9.40;99.90;;;;;;5054900;28;20021;-47
2022/03/15 09:42:35;;;;;;;13.05;6.22;;;9.30;99.90;;;;;;5054792;28;20048;-48
2022/03/15 09:45:01;;;;;;;9.88;5.68;;;9.30;99.90;;;;;;5053812;28;20024;-47
2022/03/15 09:47:34;;;;;;;9.77;5.18;;;9.30;99.90;;;;;;5054697;28;20047;-48
2022/03/15 09:50:04;;;;;;;10.68;5.50;;;9.30;99.90;;;;;;5055055;28;20079;-47
2022/03/15 09:52:32;;;;;;;12.93;6.32;;;9.40;99.90;;;;;;5054664;28;20112;-47
2022/03/15 09:54:59;;;;;;;16.58;8.05;;;9.30;99.90;;;;;;5052859;28;20017;-46
2022/03/15 09:57:25;;;;;;;23.33;10.15;;;9.30;99.90;;;;;;5052820;28;20025;-48
2022/03/15 09:59:52;;;;;;;20.58;12.98;;;9.40;99.90;;;;;;5054421;28;20025;-47
2022/03/15 10:02:18;;;;;;;17.58;7.40;;;9.40;99.90;;;;;;5054823;28;20052;-47
2022/03/15 10:04:44;;;;;;;14.23;5.45;;;9.40;99.90;;;;;;5054470;28;20116;-50
2022/03/15 10:07:10;;;;;;;12.20;5.93;;;9.30;99.90;;;;;;5053024;28;20119;-48
2022/03/15 10:09:37;;;;;;;12.57;5.63;;;9.30;99.90;;;;;;5053905;28;20048;-50
2022/03/15 10:12:03;;;;;;;10.43;5.00;;;9.40;99.90;;;;;;5053039;28;20116;-47
2022/03/15 10:14:40;;;;;;;9.05;5.32;;;9.70;99.90;;;;;;5052980;28;20097;-49
2022/03/15 10:17:05;;;;;;;15.73;5.10;;;9.90;99.90;;;;;;5053274;28;20116;-47
2022/03/15 10:19:31;;;;;;;14.52;5.18;;;10.10;99.90;;;;;;5054118;28;20048;-47
2022/03/15 10:21:57;;;;;;;13.55;4.75;;;10.20;99.90;;;;;;5053164;28;20036;-49
2022/03/15 10:24:28;;;;;;;9.48;4.90;;;10.30;99.90;;;;;;5053996;28;20111;-48
2022/03/15 10:26:57;;;;;;;9.93;5.38;;;10.30;99.90;;;;;;5053884;28;20395;-54
2022/03/15 10:29:26;;;;;;;8.52;4.53;;;10.30;99.90;;;;;;5054102;28;20557;-48
2022/03/15 10:31:52;;;;;;;8.35;5.32;;;10.30;99.90;;;;;;5054440;28;20025;-50
2022/03/15 10:34:19;;;;;;;9.73;5.78;;;10.40;99.90;;;;;;5052750;28;20396;-48
2022/03/15 10:36:48;;;;;;;9.05;4.82;;;10.30;99.90;;;;;;5053699;28;20025;-48
2022/03/15 10:39:17;;;;;;;9.07;5.53;;;10.30;99.90;;;;;;5053873;28;20032;-52
2022/03/15 10:42:08;;;;;;;13.63;5.10;;;10.30;99.90;;;;;;5052732;28;20510;-51
2022/03/15 10:44:35;;;;;;;7.72;4.53;;;10.40;99.90;;;;;;5053711;28;20056;-51
2022/03/15 10:47:05;;;;;;;8.60;4.60;;;10.40;99.90;;;;;;5053516;28;20075;-52
2022/03/15 10:49:48;;;;;;;13.02;5.72;;;10.40;99.90;;;;;;5052474;28;20060;-48
2022/03/15 10:52:28;;;;;;;9.32;4.28;;;10.40;99.90;;;;;;5053645;28;20049;-55
2022/03/15 10:54:53;;;;;;;7.18;4.32;;;10.40;99.90;;;;;;5053526;28;20023;-48
2022/03/15 10:57:19;;;;;;;9.00;5.22;;;10.40;99.90;;;;;;5052206;28;20123;-51
2022/03/15 10:59:45;;;;;;;6.32;4.65;;;10.50;99.90;;;;;;5053723;28;20021;-48
2022/03/15 11:02:12;;;;;;;6.18;3.65;;;10.50;99.90;;;;;;5052164;28;20021;-48
2022/03/15 11:04:46;;;;;;;17.05;4.75;;;10.40;99.90;;;;;;5053681;28;20022;-48
2022/03/15 11:07:13;;;;;;;11.50;4.93;;;10.30;99.90;;;;;;5052215;28;20033;-51
2022/03/15 11:09:38;;;;;;;9.80;4.85;;;10.10;99.90;;;;;;5052048;28;20052;-48
2022/03/15 11:12:07;;;;;;;12.77;4.38;;;9.90;99.90;;;;;;5053363;28;20025;-50
2022/03/15 11:14:40;;;;;;;9.68;5.00;;;9.80;99.90;;;;;;5053221;28;20025;-50
2022/03/15 11:17:25;;;;;;;8.63;4.43;;;9.90;99.90;;;;;;5051940;28;20078;-52
2022/03/15 11:19:57;;;;;;;10.93;5.63;;;10.00;99.90;;;;;;5052018;28;20099;-50
2022/03/15 11:22:28;;;;;;;13.95;5.63;;;10.00;99.90;;;;;;5053179;28;20078;-47
2022/03/15 11:25:14;;;;;;;9.20;5.60;;;9.70;99.90;;;;;;5053402;28;20223;-47
2022/03/15 11:27:42;;;;;;;9.57;6.05;;;9.70;99.90;;;;;;5053230;28;20063;-48
2022/03/15 11:30:19;;;;;;;19.45;5.72;;;9.50;99.90;;;;;;5052817;28;20051;-48
2022/03/15 11:32:45;;;;;;;10.05;5.50;;;9.40;99.90;;;;;;5051895;28;20029;-51
2022/03/15 11:35:13;;;;;;;14.52;6.05;;;9.50;99.90;;;;;;5053052;28;20025;-48
2022/03/15 11:37:41;;;;;;;13.00;6.40;;;9.50;99.90;;;;;;5052974;28;20029;-52
2022/03/15 11:40:11;;;;;;;11.55;5.70;;;9.50;99.90;;;;;;5053421;28;20492;-50
2022/03/15 11:42:43;;;;;;;14.30;6.18;;;9.40;99.90;;;;;;5053045;28;20025;-50
2022/03/15 11:45:33;;;;;;;11.43;6.03;;;9.40;99.90;;;;;;5052956;28;20115;-52
2022/03/15 11:48:04;;;;;;;10.20;5.90;;;9.50;99.90;;;;;;5046936;28;20029;-53
2022/03/15 11:50:49;;;;;;;12.80;6.57;;;9.50;99.90;;;;;;5051742;28;20025;-52
2022/03/15 11:53:38;;;;;;;14.00;6.60;;;9.40;99.90;;;;;;5053350;28;20096;-52
2022/03/15 11:56:12;;;;;;;10.18;6.50;;;9.30;99.90;;;;;;5052898;28;20025;-55
2022/03/15 11:58:38;;;;;;;11.85;6.53;;;9.10;99.90;;;;;;5052941;28;20025;-47
2022/03/15 12:01:11;;;;;;;22.23;7.50;;;8.90;99.90;;;;;;5053054;28;20021;-48
2022/03/15 12:03:56;;;;;;;13.20;7.93;;;8.70;99.90;;;;;;5052807;28;20479;-48
2022/03/15 12:06:27;;;;;;;18.27;8.00;;;8.60;99.90;;;;;;5052609;28;20052;-50
2022/03/15 12:08:56;;;;;;;19.40;10.05;;;8.50;99.90;;;;;;5052739;28;20082;-48
2022/03/15 12:11:29;;;;;;;32.45;13.75;;;8.50;99.90;;;;;;5052696;28;20021;-51
2022/03/15 12:14:16;;;;;;;17.40;9.05;;;8.40;99.90;;;;;;5052786;28;20096;-48
2022/03/15 12:16:47;;;;;;;16.20;8.93;;;8.30;99.90;;;;;;5051518;28;20039;-48
2022/03/15 12:19:39;;;;;;;17.85;9.23;;;8.30;99.90;;;;;;5052808;28;20025;-50
2022/03/15 12:22:09;;;;;;;19.90;9.45;;;8.30;99.90;;;;;;5056445;28;20097;-50
2022/03/15 12:24:40;;;;;;;16.58;8.35;;;8.20;99.90;;;;;;5056297;28;20025;-50
2022/03/15 12:27:08;;;;;;;14.75;8.23;;;8.20;99.90;;;;;;5055603;28;20031;-51
2022/03/15 12:29:36;;;;;;;25.50;10.25;;;8.10;99.90;;;;;;5055845;28;20025;-48
2022/03/15 12:32:14;;;;;;;16.25;9.23;;;8.00;99.90;;;;;;5055176;28;20067;-48
2022/03/15 12:34:44;;;;;;;16.33;9.63;;;8.10;99.90;;;;;;5054877;28;20104;-49
2022/03/15 12:37:10;;;;;;;17.58;8.90;;;8.20;99.90;;;;;;5055180;28;20032;-48
2022/03/15 12:39:36;;;;;;;20.48;10.45;;;8.10;99.90;;;;;;5054879;28;20021;-51
2022/03/15 12:42:12;;;;;;;21.67;10.57;;;8.00;99.90;;;;;;5054827;28;20025;-50
2022/03/15 12:45:01;;;;;;;22.13;10.00;;;7.90;99.90;;;;;;5055936;28;20029;-49
2022/03/15 12:47:29;;;;;;;25.10;11.68;;;7.80;99.90;;;;;;5054606;28;20027;-47
2022/03/15 12:50:04;;;;;;;19.83;9.43;;;7.80;99.90;;;;;;5055885;28;20071;-48
2022/03/15 12:52:57;;;;;;;18.60;9.18;;;7.80;99.90;;;;;;5055874;28;20025;-49
2022/03/15 12:55:34;;;;;;;22.08;9.70;;;7.70;99.90;;;;;;5047601;28;20098;-48